sensor_id;sensor_type;location;lat;lon;timestamp;P1;durP1;ratioP1;P2;durP2;ratioP2
68234;SDS011;55052;52.056;5.296;2022-07-23T00:00:14;10.57;;;3.40;;
68234;SDS011;55052;52.056;5.296;2022-07-23T00:02:41;5.75;;;2.70;;
68234;SDS011;55052;52.056;5.296;2022-07-23T00:05:08;6.13;;;2.47;;
68234;SDS011;55052;52.056;5.296;2022-07-23T00:07:36;3.88;;;2.53;;
68234;SDS011;55052;52.056;5.296;2022-07-23T00:10:04;4.25;;;1.98;;
68234;SDS011;55052;52.056;5.296;2022-07-23T00:12:31;3.88;;;2.00;;
68234;SDS011;55052;52.056;5.296;2022-07-23T00:14:58;4.72;;;2.30;;
68234;SDS011;55052;52.056;5.296;2022-07-23T00:17:24;7.50;;;2.35;;
68234;SDS011;55052;52.056;5.296;2022-07-23T00:19:51;4.03;;;2.20;;
68234;SDS011;55052;52.056;5.296;2022-07-23T00:22:19;4.30;;;2.10;;
68234;SDS011;55052;52.056;5.296;2022-07-23T00:24:46;6.32;;;2.20;;
68234;SDS011;55052;52.056;5.296;2022-07-23T00:27:33;3.22;;;2.13;;
68234;SDS011;55052;52.056;5.296;2022-07-23T00:30:00;4.35;;;2.25;;
68234;SDS011;55052;52.056;5.296;2022-07-23T00:32:27;3.20;;;1.95;;
68234;SDS011;55052;52.056;5.296;2022-07-23T00:35:13;4.88;;;2.20;;
68234;SDS011;55052;52.056;5.296;2022-07-23T00:37:41;4.32;;;2.10;;
68234;SDS011;55052;52.056;5.296;2022-07-23T00:40:08;4.55;;;2.40;;
68234;SDS011;55052;52.056;5.296;2022-07-23T00:42:36;2.67;;;1.80;;
68234;SDS011;55052;52.056;5.296;2022-07-23T00:45:03;3.92;;;2.00;;
68234;SDS011;55052;52.056;5.296;2022-07-23T00:47:30;3.00;;;1.83;;
68234;SDS011;55052;52.056;5.296;2022-07-23T00:49:57;3.85;;;2.10;;
68234;SDS011;55052;52.056;5.296;2022-07-23T00:52:24;3.80;;;2.30;;
68234;SDS011;55052;52.056;5.296;2022-07-23T00:54:51;4.55;;;2.25;;
68234;SDS011;55052;52.056;5.296;2022-07-23T00:57:18;5.57;;;2.28;;
68234;SDS011;55052;52.056;5.296;2022-07-23T00:59:50;4.18;;;2.10;;
68234;SDS011;55052;52.056;5.296;2022-07-23T01:02:17;5.18;;;2.08;;
68234;SDS011;55052;52.056;5.296;2022-07-23T01:04:44;6.40;;;2.30;;
68234;SDS011;55052;52.056;5.296;2022-07-23T01:07:11;4.20;;;2.15;;
68234;SDS011;55052;52.056;5.296;2022-07-23T01:09:38;4.25;;;1.88;;
68234;SDS011;55052;52.056;5.296;2022-07-23T01:12:05;4.70;;;2.22;;
68234;SDS011;55052;52.056;5.296;2022-07-23T01:14:33;3.58;;;1.95;;
68234;SDS011;55052;52.056;5.296;2022-07-23T01:16:59;4.20;;;1.90;;
68234;SDS011;55052;52.056;5.296;2022-07-23T01:19:27;4.20;;;2.10;;
68234;SDS011;55052;52.056;5.296;2022-07-23T01:21:53;4.22;;;2.03;;
68234;SDS011;55052;52.056;5.296;2022-07-23T01:26:50;3.08;;;2.00;;
68234;SDS011;55052;52.056;5.296;2022-07-23T01:29:17;5.50;;;2.53;;
68234;SDS011;55052;52.056;5.296;2022-07-23T01:31:44;6.85;;;2.28;;
68234;SDS011;55052;52.056;5.296;2022-07-23T01:34:11;3.83;;;2.10;;
68234;SDS011;55052;52.056;5.296;2022-07-23T01:36:38;6.20;;;2.30;;
68234;SDS011;55052;52.056;5.296;2022-07-23T01:39:05;4.30;;;2.42;;
68234;SDS011;55052;52.056;5.296;2022-07-23T01:41:33;4.55;;;2.65;;
68234;SDS011;55052;52.056;5.296;2022-07-23T01:44:00;4.00;;;2.15;;
68234;SDS011;55052;52.056;5.296;2022-07-23T01:46:27;4.10;;;2.05;;
68234;SDS011;55052;52.056;5.296;2022-07-23T01:48:54;5.00;;;2.35;;
68234;SDS011;55052;52.056;5.296;2022-07-23T01:51:20;3.83;;;2.47;;
68234;SDS011;55052;52.056;5.296;2022-07-23T01:53:47;5.93;;;2.33;;
68234;SDS011;55052;52.056;5.296;2022-07-23T01:56:14;5.22;;;2.30;;
68234;SDS011;55052;52.056;5.296;2022-07-23T01:58:41;6.60;;;2.38;;
68234;SDS011;55052;52.056;5.296;2022-07-23T02:01:08;4.38;;;2.05;;
68234;SDS011;55052;52.056;5.296;2022-07-23T02:03:35;5.43;;;2.80;;
68234;SDS011;55052;52.056;5.296;2022-07-23T02:06:02;5.25;;;2.45;;
68234;SDS011;55052;52.056;5.296;2022-07-23T02:08:29;5.07;;;2.20;;
68234;SDS011;55052;52.056;5.296;2022-07-23T02:10:56;4.05;;;2.45;;
68234;SDS011;55052;52.056;5.296;2022-07-23T02:13:22;3.88;;;2.30;;
68234;SDS011;55052;52.056;5.296;2022-07-23T02:15:49;3.97;;;2.10;;
68234;SDS011;55052;52.056;5.296;2022-07-23T02:18:16;4.28;;;2.35;;
68234;SDS011;55052;52.056;5.296;2022-07-23T02:20:43;5.32;;;2.67;;
68234;SDS011;55052;52.056;5.296;2022-07-23T02:23:10;4.07;;;2.30;;
68234;SDS011;55052;52.056;5.296;2022-07-23T02:25:37;4.07;;;2.40;;
68234;SDS011;55052;52.056;5.296;2022-07-23T02:28:05;4.35;;;2.40;;
68234;SDS011;55052;52.056;5.296;2022-07-23T02:30:32;6.65;;;2.67;;
68234;SDS011;55052;52.056;5.296;2022-07-23T02:32:59;6.07;;;2.40;;
68234;SDS011;55052;52.056;5.296;2022-07-23T02:35:26;4.57;;;2.40;;
68234;SDS011;55052;52.056;5.296;2022-07-23T02:37:52;6.65;;;2.30;;
68234;SDS011;55052;52.056;5.296;2022-07-23T02:40:19;4.60;;;2.30;;
68234;SDS011;55052;52.056;5.296;2022-07-23T02:42:46;3.53;;;2.10;;
68234;SDS011;55052;52.056;5.296;2022-07-23T02:45:12;4.82;;;2.30;;
68234;SDS011;55052;52.056;5.296;2022-07-23T02:47:39;6.18;;;2.50;;
68234;SDS011;55052;52.056;5.296;2022-07-23T02:50:06;3.30;;;2.17;;
68234;SDS011;55052;52.056;5.296;2022-07-23T02:52:34;6.65;;;2.38;;
68234;SDS011;55052;52.056;5.296;2022-07-23T02:55:00;4.15;;;2.40;;
68234;SDS011;55052;52.056;5.296;2022-07-23T02:57:27;4.45;;;2.30;;
68234;SDS011;55052;52.056;5.296;2022-07-23T02:59:54;9.40;;;2.50;;
68234;SDS011;55052;52.056;5.296;2022-07-23T03:02:21;4.00;;;2.28;;
68234;SDS011;55052;52.056;5.296;2022-07-23T03:04:47;5.80;;;2.13;;
68234;SDS011;55052;52.056;5.296;2022-07-23T03:07:17;3.90;;;2.28;;
68234;SDS011;55052;52.056;5.296;2022-07-23T03:09:44;4.13;;;2.30;;
68234;SDS011;55052;52.056;5.296;2022-07-23T03:12:10;4.65;;;2.53;;
68234;SDS011;55052;52.056;5.296;2022-07-23T03:14:39;3.33;;;2.08;;
68234;SDS011;55052;52.056;5.296;2022-07-23T03:17:07;7.40;;;3.28;;
68234;SDS011;55052;52.056;5.296;2022-07-23T03:19:34;4.65;;;2.00;;
68234;SDS011;55052;52.056;5.296;2022-07-23T03:22:01;5.43;;;2.38;;
68234;SDS011;55052;52.056;5.296;2022-07-23T03:24:28;5.25;;;2.20;;
68234;SDS011;55052;52.056;5.296;2022-07-23T03:27:13;5.32;;;2.45;;
68234;SDS011;55052;52.056;5.296;2022-07-23T03:29:40;4.57;;;2.38;;
68234;SDS011;55052;52.056;5.296;2022-07-23T03:32:07;5.03;;;2.33;;
68234;SDS011;55052;52.056;5.296;2022-07-23T03:34:34;3.92;;;2.30;;
68234;SDS011;55052;52.056;5.296;2022-07-23T03:37:00;5.53;;;2.15;;
68234;SDS011;55052;52.056;5.296;2022-07-23T03:39:28;6.13;;;2.72;;
68234;SDS011;55052;52.056;5.296;2022-07-23T03:41:54;4.10;;;2.17;;
68234;SDS011;55052;52.056;5.296;2022-07-23T03:44:21;7.13;;;2.67;;
68234;SDS011;55052;52.056;5.296;2022-07-23T03:46:48;4.68;;;2.30;;
68234;SDS011;55052;52.056;5.296;2022-07-23T03:49:15;4.20;;;2.20;;
68234;SDS011;55052;52.056;5.296;2022-07-23T03:51:42;4.10;;;2.10;;
68234;SDS011;55052;52.056;5.296;2022-07-23T03:54:09;4.97;;;2.17;;
68234;SDS011;55052;52.056;5.296;2022-07-23T03:56:36;8.18;;;1.90;;
68234;SDS011;55052;52.056;5.296;2022-07-23T03:59:03;3.25;;;2.08;;
68234;SDS011;55052;52.056;5.296;2022-07-23T04:01:30;3.70;;;1.80;;
68234;SDS011;55052;52.056;5.296;2022-07-23T04:03:57;4.30;;;2.00;;
68234;SDS011;55052;52.056;5.296;2022-07-23T04:06:24;4.35;;;2.30;;
68234;SDS011;55052;52.056;5.296;2022-07-23T04:08:51;3.95;;;1.90;;
68234;SDS011;55052;52.056;5.296;2022-07-23T04:11:18;4.13;;;2.20;;
68234;SDS011;55052;52.056;5.296;2022-07-23T04:13:45;3.83;;;2.35;;
68234;SDS011;55052;52.056;5.296;2022-07-23T04:16:12;4.20;;;2.45;;
68234;SDS011;55052;52.056;5.296;2022-07-23T04:18:38;5.30;;;2.40;;
68234;SDS011;55052;52.056;5.296;2022-07-23T04:21:05;6.40;;;2.40;;
68234;SDS011;55052;52.056;5.296;2022-07-23T04:23:32;6.18;;;2.50;;
68234;SDS011;55052;52.056;5.296;2022-07-23T04:25:59;4.50;;;2.33;;
68234;SDS011;55052;52.056;5.296;2022-07-23T04:28:25;3.88;;;2.38;;
68234;SDS011;55052;52.056;5.296;2022-07-23T04:30:52;3.33;;;2.05;;
68234;SDS011;55052;52.056;5.296;2022-07-23T04:33:19;6.10;;;2.30;;
68234;SDS011;55052;52.056;5.296;2022-07-23T04:35:46;3.95;;;2.33;;
68234;SDS011;55052;52.056;5.296;2022-07-23T04:38:12;4.57;;;2.40;;
68234;SDS011;55052;52.056;5.296;2022-07-23T04:40:39;7.30;;;2.50;;
68234;SDS011;55052;52.056;5.296;2022-07-23T04:43:06;2.97;;;2.03;;
68234;SDS011;55052;52.056;5.296;2022-07-23T04:45:32;4.63;;;2.33;;
68234;SDS011;55052;52.056;5.296;2022-07-23T04:47:59;5.72;;;2.20;;
68234;SDS011;55052;52.056;5.296;2022-07-23T04:50:27;4.65;;;2.35;;
68234;SDS011;55052;52.056;5.296;2022-07-23T04:52:53;4.97;;;2.50;;
68234;SDS011;55052;52.056;5.296;2022-07-23T04:55:20;5.10;;;2.83;;
68234;SDS011;55052;52.056;5.296;2022-07-23T04:57:47;4.45;;;2.80;;
68234;SDS011;55052;52.056;5.296;2022-07-23T05:00:14;6.07;;;2.50;;
68234;SDS011;55052;52.056;5.296;2022-07-23T05:02:41;3.35;;;2.30;;
68234;SDS011;55052;52.056;5.296;2022-07-23T05:05:07;4.68;;;2.42;;
68234;SDS011;55052;52.056;5.296;2022-07-23T05:07:34;4.13;;;2.22;;
68234;SDS011;55052;52.056;5.296;2022-07-23T05:10:01;4.10;;;2.45;;
68234;SDS011;55052;52.056;5.296;2022-07-23T05:12:28;4.00;;;2.50;;
68234;SDS011;55052;52.056;5.296;2022-07-23T05:14:54;9.77;;;2.60;;
68234;SDS011;55052;52.056;5.296;2022-07-23T05:17:21;5.15;;;2.60;;
68234;SDS011;55052;52.056;5.296;2022-07-23T05:19:48;5.82;;;2.85;;
68234;SDS011;55052;52.056;5.296;2022-07-23T05:22:14;5.38;;;2.90;;
68234;SDS011;55052;52.056;5.296;2022-07-23T05:24:41;4.88;;;2.80;;
68234;SDS011;55052;52.056;5.296;2022-07-23T05:27:09;6.07;;;3.00;;
68234;SDS011;55052;52.056;5.296;2022-07-23T05:29:35;8.73;;;2.92;;
68234;SDS011;55052;52.056;5.296;2022-07-23T05:32:02;5.82;;;3.00;;
68234;SDS011;55052;52.056;5.296;2022-07-23T05:34:29;5.75;;;2.90;;
68234;SDS011;55052;52.056;5.296;2022-07-23T05:36:56;5.15;;;2.83;;
68234;SDS011;55052;52.056;5.296;2022-07-23T05:39:22;4.80;;;3.00;;
68234;SDS011;55052;52.056;5.296;2022-07-23T05:41:49;4.45;;;2.85;;
68234;SDS011;55052;52.056;5.296;2022-07-23T05:44:16;6.88;;;2.88;;
68234;SDS011;55052;52.056;5.296;2022-07-23T05:46:42;5.22;;;2.70;;
68234;SDS011;55052;52.056;5.296;2022-07-23T05:49:09;6.00;;;3.15;;
68234;SDS011;55052;52.056;5.296;2022-07-23T05:51:36;5.28;;;2.90;;
68234;SDS011;55052;52.056;5.296;2022-07-23T05:54:03;6.18;;;3.38;;
68234;SDS011;55052;52.056;5.296;2022-07-23T05:56:29;5.60;;;2.97;;
68234;SDS011;55052;52.056;5.296;2022-07-23T05:58:56;4.40;;;2.92;;
68234;SDS011;55052;52.056;5.296;2022-07-23T06:01:23;4.95;;;2.72;;
68234;SDS011;55052;52.056;5.296;2022-07-23T06:03:50;5.28;;;3.13;;
68234;SDS011;55052;52.056;5.296;2022-07-23T06:06:17;4.30;;;2.83;;
68234;SDS011;55052;52.056;5.296;2022-07-23T06:08:43;5.70;;;3.22;;
68234;SDS011;55052;52.056;5.296;2022-07-23T06:11:10;6.00;;;3.33;;
68234;SDS011;55052;52.056;5.296;2022-07-23T06:13:37;6.63;;;3.47;;
68234;SDS011;55052;52.056;5.296;2022-07-23T06:16:04;5.47;;;3.38;;
68234;SDS011;55052;52.056;5.296;2022-07-23T06:18:31;7.47;;;2.92;;
68234;SDS011;55052;52.056;5.296;2022-07-23T06:20:57;6.47;;;2.45;;
68234;SDS011;55052;52.056;5.296;2022-07-23T06:23:26;6.38;;;2.22;;
68234;SDS011;55052;52.056;5.296;2022-07-23T06:25:52;6.07;;;2.65;;
68234;SDS011;55052;52.056;5.296;2022-07-23T06:28:19;5.50;;;2.53;;
68234;SDS011;55052;52.056;5.296;2022-07-23T06:30:46;4.57;;;2.50;;
68234;SDS011;55052;52.056;5.296;2022-07-23T06:33:13;4.20;;;2.20;;
68234;SDS011;55052;52.056;5.296;2022-07-23T06:35:39;3.60;;;2.10;;
68234;SDS011;55052;52.056;5.296;2022-07-23T06:38:07;5.88;;;2.20;;
68234;SDS011;55052;52.056;5.296;2022-07-23T06:40:34;3.90;;;1.80;;
68234;SDS011;55052;52.056;5.296;2022-07-23T06:43:01;3.30;;;1.80;;
68234;SDS011;55052;52.056;5.296;2022-07-23T06:45:28;3.47;;;1.75;;
68234;SDS011;55052;52.056;5.296;2022-07-23T06:47:55;4.00;;;1.90;;
68234;SDS011;55052;52.056;5.296;2022-07-23T06:50:22;4.03;;;1.73;;
68234;SDS011;55052;52.056;5.296;2022-07-23T06:52:49;3.85;;;1.60;;
68234;SDS011;55052;52.056;5.296;2022-07-23T06:55:15;3.42;;;1.70;;
68234;SDS011;55052;52.056;5.296;2022-07-23T06:57:42;5.03;;;1.63;;
68234;SDS011;55052;52.056;5.296;2022-07-23T07:00:09;3.80;;;1.90;;
68234;SDS011;55052;52.056;5.296;2022-07-23T07:02:36;5.25;;;1.70;;
68234;SDS011;55052;52.056;5.296;2022-07-23T07:05:03;3.70;;;1.77;;
68234;SDS011;55052;52.056;5.296;2022-07-23T07:07:32;5.28;;;1.75;;
68234;SDS011;55052;52.056;5.296;2022-07-23T07:09:59;5.15;;;1.75;;
68234;SDS011;55052;52.056;5.296;2022-07-23T07:12:26;3.78;;;1.70;;
68234;SDS011;55052;52.056;5.296;2022-07-23T07:14:53;3.67;;;1.92;;
68234;SDS011;55052;52.056;5.296;2022-07-23T07:17:20;4.63;;;1.77;;
68234;SDS011;55052;52.056;5.296;2022-07-23T07:19:47;4.40;;;1.80;;
68234;SDS011;55052;52.056;5.296;2022-07-23T07:22:13;4.22;;;1.63;;
68234;SDS011;55052;52.056;5.296;2022-07-23T07:24:40;4.18;;;2.08;;
68234;SDS011;55052;52.056;5.296;2022-07-23T07:27:07;4.40;;;1.85;;
68234;SDS011;55052;52.056;5.296;2022-07-23T07:29:34;5.50;;;1.88;;
68234;SDS011;55052;52.056;5.296;2022-07-23T07:32:00;3.92;;;1.88;;
68234;SDS011;55052;52.056;5.296;2022-07-23T07:34:27;7.13;;;2.20;;
68234;SDS011;55052;52.056;5.296;2022-07-23T07:36:55;7.95;;;1.95;;
68234;SDS011;55052;52.056;5.296;2022-07-23T07:39:22;4.78;;;2.00;;
68234;SDS011;55052;52.056;5.296;2022-07-23T07:41:48;3.97;;;1.95;;
68234;SDS011;55052;52.056;5.296;2022-07-23T07:44:15;4.65;;;1.90;;
68234;SDS011;55052;52.056;5.296;2022-07-23T07:46:42;2.97;;;1.90;;
68234;SDS011;55052;52.056;5.296;2022-07-23T07:49:09;6.35;;;1.90;;
68234;SDS011;55052;52.056;5.296;2022-07-23T07:51:56;4.18;;;2.00;;
68234;SDS011;55052;52.056;5.296;2022-07-23T07:54:23;4.80;;;1.98;;
68234;SDS011;55052;52.056;5.296;2022-07-23T07:56:49;3.42;;;1.98;;
68234;SDS011;55052;52.056;5.296;2022-07-23T07:59:16;6.07;;;2.10;;
68234;SDS011;55052;52.056;5.296;2022-07-23T08:01:43;3.75;;;1.70;;
68234;SDS011;55052;52.056;5.296;2022-07-23T08:04:10;3.13;;;1.90;;
68234;SDS011;55052;52.056;5.296;2022-07-23T08:06:37;4.13;;;1.98;;
68234;SDS011;55052;52.056;5.296;2022-07-23T08:09:04;2.92;;;1.67;;
68234;SDS011;55052;52.056;5.296;2022-07-23T08:11:31;6.22;;;1.92;;
68234;SDS011;55052;52.056;5.296;2022-07-23T08:13:57;5.65;;;1.70;;
68234;SDS011;55052;52.056;5.296;2022-07-23T08:16:25;4.80;;;2.00;;
68234;SDS011;55052;52.056;5.296;2022-07-23T08:18:51;5.00;;;1.77;;
68234;SDS011;55052;52.056;5.296;2022-07-23T08:21:18;4.53;;;1.67;;
68234;SDS011;55052;52.056;5.296;2022-07-23T08:23:45;4.72;;;1.70;;
68234;SDS011;55052;52.056;5.296;2022-07-23T08:26:12;4.20;;;1.70;;
68234;SDS011;55052;52.056;5.296;2022-07-23T08:28:38;4.90;;;1.50;;
68234;SDS011;55052;52.056;5.296;2022-07-23T08:31:05;2.10;;;1.50;;
68234;SDS011;55052;52.056;5.296;2022-07-23T08:33:32;4.57;;;1.83;;
68234;SDS011;55052;52.056;5.296;2022-07-23T08:36:00;8.35;;;2.65;;
68234;SDS011;55052;52.056;5.296;2022-07-23T08:38:29;2.58;;;1.55;;
68234;SDS011;55052;52.056;5.296;2022-07-23T08:40:57;4.18;;;1.80;;
68234;SDS011;55052;52.056;5.296;2022-07-23T08:43:30;3.50;;;1.80;;
68234;SDS011;55052;52.056;5.296;2022-07-23T08:45:59;3.55;;;1.65;;
68234;SDS011;55052;52.056;5.296;2022-07-23T08:48:28;3.40;;;1.50;;
68234;SDS011;55052;52.056;5.296;2022-07-23T08:50:57;3.40;;;1.70;;
68234;SDS011;55052;52.056;5.296;2022-07-23T08:53:27;2.92;;;1.65;;
68234;SDS011;55052;52.056;5.296;2022-07-23T08:56:00;3.67;;;1.63;;
68234;SDS011;55052;52.056;5.296;2022-07-23T08:58:28;5.03;;;1.83;;
68234;SDS011;55052;52.056;5.296;2022-07-23T09:00:56;3.53;;;1.52;;
68234;SDS011;55052;52.056;5.296;2022-07-23T09:05:53;3.70;;;1.75;;
68234;SDS011;55052;52.056;5.296;2022-07-23T09:11:10;6.13;;;1.80;;
68234;SDS011;55052;52.056;5.296;2022-07-23T09:13:48;3.08;;;1.50;;
68234;SDS011;55052;52.056;5.296;2022-07-23T09:16:19;3.90;;;1.70;;
68234;SDS011;55052;52.056;5.296;2022-07-23T09:18:54;2.38;;;1.58;;
68234;SDS011;55052;52.056;5.296;2022-07-23T09:21:25;5.15;;;1.70;;
68234;SDS011;55052;52.056;5.296;2022-07-23T09:23:57;4.25;;;1.67;;
68234;SDS011;55052;52.056;5.296;2022-07-23T09:26:34;4.00;;;1.60;;
68234;SDS011;55052;52.056;5.296;2022-07-23T09:29:06;4.43;;;1.70;;
68234;SDS011;55052;52.056;5.296;2022-07-23T09:34:34;4.07;;;1.75;;
68234;SDS011;55052;52.056;5.296;2022-07-23T09:39:39;5.72;;;1.90;;
68234;SDS011;55052;52.056;5.296;2022-07-23T09:42:18;3.80;;;1.55;;
68234;SDS011;55052;52.056;5.296;2022-07-23T09:44:50;4.13;;;1.65;;
68234;SDS011;55052;52.056;5.296;2022-07-23T09:47:19;3.35;;;1.52;;
68234;SDS011;55052;52.056;5.296;2022-07-23T09:50:06;2.65;;;1.50;;
68234;SDS011;55052;52.056;5.296;2022-07-23T09:52:36;3.22;;;1.60;;
68234;SDS011;55052;52.056;5.296;2022-07-23T09:55:04;3.78;;;1.52;;
68234;SDS011;55052;52.056;5.296;2022-07-23T09:57:32;3.83;;;1.60;;
68234;SDS011;55052;52.056;5.296;2022-07-23T10:00:04;4.25;;;1.70;;
68234;SDS011;55052;52.056;5.296;2022-07-23T10:02:32;3.53;;;1.80;;
68234;SDS011;55052;52.056;5.296;2022-07-23T10:05:01;3.67;;;1.63;;
68234;SDS011;55052;52.056;5.296;2022-07-23T10:07:28;2.80;;;1.65;;
68234;SDS011;55052;52.056;5.296;2022-07-23T10:10:00;3.50;;;1.50;;
68234;SDS011;55052;52.056;5.296;2022-07-23T10:12:28;4.13;;;1.70;;
68234;SDS011;55052;52.056;5.296;2022-07-23T10:15:00;3.55;;;1.60;;
68234;SDS011;55052;52.056;5.296;2022-07-23T10:17:28;3.70;;;1.60;;
68234;SDS011;55052;52.056;5.296;2022-07-23T10:19:55;3.20;;;1.40;;
68234;SDS011;55052;52.056;5.296;2022-07-23T10:22:24;3.92;;;1.55;;
68234;SDS011;55052;52.056;5.296;2022-07-23T10:30:15;3.40;;;1.70;;
68234;SDS011;55052;52.056;5.296;2022-07-23T10:33:09;5.25;;;1.77;;
68234;SDS011;55052;52.056;5.296;2022-07-23T10:35:47;3.08;;;1.58;;
68234;SDS011;55052;52.056;5.296;2022-07-23T10:38:21;3.42;;;1.67;;
68234;SDS011;55052;52.056;5.296;2022-07-23T10:41:01;3.00;;;1.60;;
68234;SDS011;55052;52.056;5.296;2022-07-23T10:43:29;4.75;;;1.40;;
68234;SDS011;55052;52.056;5.296;2022-07-23T10:49:20;3.97;;;1.70;;
68234;SDS011;55052;52.056;5.296;2022-07-23T10:54:37;3.50;;;1.80;;
68234;SDS011;55052;52.056;5.296;2022-07-23T10:57:05;3.97;;;1.70;;
68234;SDS011;55052;52.056;5.296;2022-07-23T11:02:33;2.63;;;1.43;;
68234;SDS011;55052;52.056;5.296;2022-07-23T11:05:01;3.13;;;1.55;;
68234;SDS011;55052;52.056;5.296;2022-07-23T11:07:31;2.88;;;1.58;;
68234;SDS011;55052;52.056;5.296;2022-07-23T11:09:58;3.17;;;1.60;;
68234;SDS011;55052;52.056;5.296;2022-07-23T11:25:12;6.25;;;2.35;;
68234;SDS011;55052;52.056;5.296;2022-07-23T11:28:10;2.55;;;1.55;;
68234;SDS011;55052;52.056;5.296;2022-07-23T11:30:46;2.70;;;1.27;;
68234;SDS011;55052;52.056;5.296;2022-07-23T11:35:41;4.30;;;1.70;;
68234;SDS011;55052;52.056;5.296;2022-07-23T11:38:14;4.40;;;1.70;;
68234;SDS011;55052;52.056;5.296;2022-07-23T11:40:46;4.88;;;1.83;;
68234;SDS011;55052;52.056;5.296;2022-07-23T11:43:15;4.22;;;1.80;;
68234;SDS011;55052;52.056;5.296;2022-07-23T11:45:43;4.00;;;1.70;;
68234;SDS011;55052;52.056;5.296;2022-07-23T11:48:21;5.47;;;1.90;;
68234;SDS011;55052;52.056;5.296;2022-07-23T11:50:52;5.28;;;1.90;;
68234;SDS011;55052;52.056;5.296;2022-07-23T11:53:24;3.85;;;1.90;;
68234;SDS011;55052;52.056;5.296;2022-07-23T11:55:52;3.92;;;2.00;;
68234;SDS011;55052;52.056;5.296;2022-07-23T11:58:19;4.57;;;1.90;;
68234;SDS011;55052;52.056;5.296;2022-07-23T12:00:46;5.03;;;2.05;;
68234;SDS011;55052;52.056;5.296;2022-07-23T12:03:13;3.95;;;2.15;;
68234;SDS011;55052;52.056;5.296;2022-07-23T12:05:40;3.58;;;2.00;;
68234;SDS011;55052;52.056;5.296;2022-07-23T12:08:09;3.00;;;1.58;;
68234;SDS011;55052;52.056;5.296;2022-07-23T12:10:40;4.75;;;1.95;;
68234;SDS011;55052;52.056;5.296;2022-07-23T12:13:13;4.65;;;2.05;;
68234;SDS011;55052;52.056;5.296;2022-07-23T12:15:43;5.22;;;2.10;;
68234;SDS011;55052;52.056;5.296;2022-07-23T12:18:12;4.03;;;1.75;;
68234;SDS011;55052;52.056;5.296;2022-07-23T12:20:43;3.45;;;1.90;;
68234;SDS011;55052;52.056;5.296;2022-07-23T12:23:12;3.90;;;1.80;;
68234;SDS011;55052;52.056;5.296;2022-07-23T12:25:46;3.17;;;1.80;;
68234;SDS011;55052;52.056;5.296;2022-07-23T12:28:15;3.20;;;1.90;;
68234;SDS011;55052;52.056;5.296;2022-07-23T12:30:45;5.68;;;2.45;;
68234;SDS011;55052;52.056;5.296;2022-07-23T12:33:13;4.30;;;2.03;;
68234;SDS011;55052;52.056;5.296;2022-07-23T12:36:00;3.78;;;1.92;;
68234;SDS011;55052;52.056;5.296;2022-07-23T12:38:37;8.27;;;2.47;;
68234;SDS011;55052;52.056;5.296;2022-07-23T12:41:15;7.07;;;2.38;;
68234;SDS011;55052;52.056;5.296;2022-07-23T12:43:43;6.05;;;2.40;;
68234;SDS011;55052;52.056;5.296;2022-07-23T12:46:13;5.32;;;2.15;;
68234;SDS011;55052;52.056;5.296;2022-07-23T12:53:57;4.63;;;2.13;;
68234;SDS011;55052;52.056;5.296;2022-07-23T12:56:31;4.30;;;2.23;;
68234;SDS011;55052;52.056;5.296;2022-07-23T12:59:06;5.32;;;2.08;;
68234;SDS011;55052;52.056;5.296;2022-07-23T13:01:38;9.15;;;2.45;;
68234;SDS011;55052;52.056;5.296;2022-07-23T13:04:10;4.85;;;2.10;;
68234;SDS011;55052;52.056;5.296;2022-07-23T13:06:44;5.70;;;2.08;;
68234;SDS011;55052;52.056;5.296;2022-07-23T13:09:23;5.75;;;2.38;;
68234;SDS011;55052;52.056;5.296;2022-07-23T13:12:16;4.68;;;2.35;;
68234;SDS011;55052;52.056;5.296;2022-07-23T13:14:43;4.65;;;2.35;;
68234;SDS011;55052;52.056;5.296;2022-07-23T13:17:10;5.93;;;2.35;;
68234;SDS011;55052;52.056;5.296;2022-07-23T13:19:38;4.45;;;2.35;;
68234;SDS011;55052;52.056;5.296;2022-07-23T13:22:04;6.85;;;2.22;;
68234;SDS011;55052;52.056;5.296;2022-07-23T13:24:35;4.75;;;2.20;;
68234;SDS011;55052;52.056;5.296;2022-07-23T13:27:04;4.68;;;2.40;;
68234;SDS011;55052;52.056;5.296;2022-07-23T13:29:32;5.75;;;2.78;;
68234;SDS011;55052;52.056;5.296;2022-07-23T13:32:01;6.13;;;2.30;;
68234;SDS011;55052;52.056;5.296;2022-07-23T13:34:36;4.95;;;2.22;;
68234;SDS011;55052;52.056;5.296;2022-07-23T13:39:33;6.40;;;2.67;;
68234;SDS011;55052;52.056;5.296;2022-07-23T13:42:04;5.00;;;2.63;;
68234;SDS011;55052;52.056;5.296;2022-07-23T13:44:33;5.30;;;2.25;;
68234;SDS011;55052;52.056;5.296;2022-07-23T13:47:01;5.43;;;1.90;;
68234;SDS011;55052;52.056;5.296;2022-07-23T13:49:29;4.70;;;2.25;;
68234;SDS011;55052;52.056;5.296;2022-07-23T13:51:56;4.93;;;2.35;;
68234;SDS011;55052;52.056;5.296;2022-07-23T13:54:24;5.20;;;2.65;;
68234;SDS011;55052;52.056;5.296;2022-07-23T13:59:20;4.97;;;2.40;;
68234;SDS011;55052;52.056;5.296;2022-07-23T14:01:52;4.95;;;2.33;;
68234;SDS011;55052;52.056;5.296;2022-07-23T14:04:39;6.00;;;2.28;;
68234;SDS011;55052;52.056;5.296;2022-07-23T14:07:07;5.68;;;2.50;;
68234;SDS011;55052;52.056;5.296;2022-07-23T14:09:34;5.53;;;2.15;;
68234;SDS011;55052;52.056;5.296;2022-07-23T14:12:02;5.28;;;2.30;;
68234;SDS011;55052;52.056;5.296;2022-07-23T14:14:29;5.55;;;2.50;;
68234;SDS011;55052;52.056;5.296;2022-07-23T14:16:56;3.83;;;2.05;;
68234;SDS011;55052;52.056;5.296;2022-07-23T14:19:23;4.45;;;1.92;;
68234;SDS011;55052;52.056;5.296;2022-07-23T14:21:50;4.50;;;2.30;;
68234;SDS011;55052;52.056;5.296;2022-07-23T14:24:17;7.45;;;2.45;;
68234;SDS011;55052;52.056;5.296;2022-07-23T14:26:47;7.32;;;2.40;;
68234;SDS011;55052;52.056;5.296;2022-07-23T14:29:13;5.03;;;2.42;;
68234;SDS011;55052;52.056;5.296;2022-07-23T14:31:40;5.70;;;2.63;;
68234;SDS011;55052;52.056;5.296;2022-07-23T14:34:07;4.93;;;2.10;;
68234;SDS011;55052;52.056;5.296;2022-07-23T14:36:34;4.63;;;2.35;;
68234;SDS011;55052;52.056;5.296;2022-07-23T14:39:04;4.10;;;2.35;;
68234;SDS011;55052;52.056;5.296;2022-07-23T14:41:35;5.65;;;2.38;;
68234;SDS011;55052;52.056;5.296;2022-07-23T14:44:02;3.88;;;2.00;;
68234;SDS011;55052;52.056;5.296;2022-07-23T14:46:30;5.28;;;2.33;;
68234;SDS011;55052;52.056;5.296;2022-07-23T14:48:58;5.18;;;2.20;;
68234;SDS011;55052;52.056;5.296;2022-07-23T14:51:26;8.13;;;2.72;;
68234;SDS011;55052;52.056;5.296;2022-07-23T14:53:54;6.15;;;2.70;;
68234;SDS011;55052;52.056;5.296;2022-07-23T14:56:21;4.60;;;2.20;;
68234;SDS011;55052;52.056;5.296;2022-07-23T14:58:48;5.38;;;2.80;;
68234;SDS011;55052;52.056;5.296;2022-07-23T15:01:15;4.13;;;2.03;;
68234;SDS011;55052;52.056;5.296;2022-07-23T15:03:42;5.53;;;2.10;;
68234;SDS011;55052;52.056;5.296;2022-07-23T15:06:10;5.70;;;2.25;;
68234;SDS011;55052;52.056;5.296;2022-07-23T15:08:37;5.80;;;2.20;;
68234;SDS011;55052;52.056;5.296;2022-07-23T15:11:05;4.30;;;2.30;;
68234;SDS011;55052;52.056;5.296;2022-07-23T15:13:35;5.60;;;2.60;;
68234;SDS011;55052;52.056;5.296;2022-07-23T15:16:03;5.20;;;2.50;;
68234;SDS011;55052;52.056;5.296;2022-07-23T15:18:32;4.28;;;2.22;;
68234;SDS011;55052;52.056;5.296;2022-07-23T15:20:59;3.03;;;1.90;;
68234;SDS011;55052;52.056;5.296;2022-07-23T15:23:27;4.43;;;2.20;;
68234;SDS011;55052;52.056;5.296;2022-07-23T15:25:54;5.00;;;2.38;;
68234;SDS011;55052;52.056;5.296;2022-07-23T15:28:22;5.68;;;2.60;;
68234;SDS011;55052;52.056;5.296;2022-07-23T15:30:50;6.82;;;2.47;;
68234;SDS011;55052;52.056;5.296;2022-07-23T15:33:19;6.38;;;2.55;;
68234;SDS011;55052;52.056;5.296;2022-07-23T15:35:47;6.43;;;2.40;;
68234;SDS011;55052;52.056;5.296;2022-07-23T15:38:14;4.50;;;2.30;;
68234;SDS011;55052;52.056;5.296;2022-07-23T15:40:50;5.68;;;2.78;;
68234;SDS011;55052;52.056;5.296;2022-07-23T15:43:17;6.15;;;2.10;;
68234;SDS011;55052;52.056;5.296;2022-07-23T15:45:45;4.90;;;2.05;;
68234;SDS011;55052;52.056;5.296;2022-07-23T15:48:12;4.85;;;2.30;;